Aviation Digital Data Service (ADDS)

Output produced by METARs form (0754 UTC 18 January 2018)
found at http://aviationweather.gov/adds/metars/
 
KMGW 180520Z 1806/1906 25004KT P6SM OVC015 
     FM181100 23008KT P6SM SCT015 
     FM181500 22010G19KT P6SM SKC 
     FM182200 22008KT P6SM SKC